Have a Safe July 4th! 

Flight Track Log - Related Links

Times and Time Zones

All times are in EST time to prevent confusion due to time zone crossing. See the SWA2019 flight status page for this flight to view local times or setup timezone preferences in your user account.

Time Position Orientation Groundspeed Altitude Reporting Facility
EST Latitude Longitude Course Direction KTS MPH feet Rate Location/Type
Fri 08:35:27 PM 28.4333 -81.3000 24° Northeast 149 171 800  Level Orlando TRACON
Fri 08:36:45 PM 28.5000 -81.2667 24° Northeast 212 244 3,800 2,331 Climbing Orlando TRACON
Fri 08:37:46 PM 28.5667 -81.2500 12° North 263 303 6,200 2,495 Climbing Orlando TRACON
Fri 08:39:55 PM 28.7139 -81.2925 346° North 265 305 11,700 2,889 Climbing Jacksonville Center
Fri 08:40:55 PM 28.7997 -81.3100 350° North 293 337 15,300 3,000 Climbing Jacksonville Center
Fri 08:41:55 PM 28.8875 -81.3369 345° North 308 354 17,700 2,550 Climbing Jacksonville Center
Fri 08:42:55 PM 28.9819 -81.3592 348° North 327 376 20,400 2,400 Climbing Jacksonville Center
Fri 08:43:55 PM 29.0803 -81.3839 348° North 345 397 22,500 2,050 Climbing Jacksonville Center
Fri 08:44:55 PM 29.1847 -81.3964 354° North 362 417 24,500 1,900 Climbing Jacksonville Center
Fri 08:45:55 PM 29.2953 -81.3853 North 378 435 26,300 1,700 Climbing Jacksonville Center
Fri 08:46:55 PM 29.4078 -81.3764 North 395 455 27,900 1,600 Climbing Jacksonville Center
Fri 08:47:55 PM 29.5225 -81.3722 North 406 467 29,500 1,750 Climbing Jacksonville Center
Fri 08:48:55 PM 29.6353 -81.3633 North 406 467 31,400 1,650 Climbing Jacksonville Center
Fri 08:49:55 PM 29.7519 -81.3567 North 406 467 32,800 1,200 Climbing Jacksonville Center
Fri 08:50:55 PM 29.8625 -81.3478 North 406 467 33,800 1,000 Climbing Jacksonville Center
Fri 08:51:55 PM 29.9836 -81.3386 North 406 467 34,800 756 Climbing Jacksonville Center
Fri 08:52:54 PM 30.1025 -81.3294 North 419 482 35,300 600 Climbing Jacksonville Center
Fri 08:53:55 PM 30.2256 -81.3203 North 430 495 36,000 843 Climbing Jacksonville Center
Fri 08:54:55 PM 30.3506 -81.3111 North 441 507 37,000 500 Climbing Jacksonville Center
Fri 08:55:55 PM 30.4736 -81.3019 North 441 507 37,000  Level Jacksonville Center
Fri 08:56:55 PM 30.5989 -81.2950 North 441 507 37,000  Level Jacksonville Center
Fri 08:57:55 PM 30.7219 -81.2856 North 441 507 37,000  Level Jacksonville Center
Fri 08:58:55 PM 30.8472 -81.2761 North 441 507 37,000  Level Jacksonville Center
Fri 08:59:55 PM 30.9681 -81.2694 North 441 507 37,000  Level Jacksonville Center
Fri 09:00:55 PM 31.0911 -81.2600 North 441 507 37,000  Level Jacksonville Center
Fri 09:01:55 PM 31.2100 -81.2506 North 441 507 37,000  Level Jacksonville Center
Fri 09:02:55 PM 31.3311 -81.2436 North 436 502 37,000  Level Jacksonville Center
Fri 09:03:55 PM 31.4500 -81.2342 North 431 496 37,000  Level Jacksonville Center
Fri 09:04:55 PM 31.5833 -81.2219 North 431 496 37,000  Level Jacksonville Center
Fri 09:05:55 PM 31.7044 -81.2150 North 431 496 37,000  Level Jacksonville Center
Fri 09:06:55 PM 31.8275 -81.2053 North 431 496 37,000  Level Jacksonville Center
Fri 09:07:55 PM 31.9381 -81.1983 North 431 496 37,000  Level Jacksonville Center
Fri 09:08:55 PM 32.0611 -81.1889 North 436 502 37,000  Level Jacksonville Center
Fri 09:09:55 PM 32.1819 -81.1792 North 436 502 37,000  Level Jacksonville Center
Fri 09:10:55 PM 32.3031 -81.1719 North 436 502 37,000  Level Jacksonville Center
Fri 09:11:55 PM 32.4261 -81.1647 North 441 507 37,000  Level Jacksonville Center
Fri 09:12:55 PM 32.5617 -81.1547 North 436 502 37,000  Level Jacksonville Center
Fri 09:13:55 PM 32.6847 -81.1450 North 441 507 37,000  Level Jacksonville Center
Fri 09:14:55 PM 32.7953 -81.1381 North 441 507 37,000  Level Jacksonville Center
Fri 09:15:55 PM 32.9161 -81.1283 North 436 502 37,000  Level Jacksonville Center
Fri 09:16:55 PM 33.0369 -81.1133 North 436 502 37,000  Level Jacksonville Center
Fri 09:17:55 PM 33.1661 -81.0836 11° North 436 502 37,000  Level Jacksonville Center
Fri 09:18:55 PM 33.2867 -81.0539 12° North 431 496 37,000  Level Jacksonville Center
Fri 09:19:55 PM 33.4072 -81.0264 11° North 431 496 37,000  Level Jacksonville Center
Fri 09:20:55 PM 33.5258 -80.9967 12° North 431 496 37,000  Level Jacksonville Center
Fri 09:22:46 PM 33.7386 -80.9461 11° North 422 486 37,000  Level Atlanta Center
Fri 09:23:46 PM 33.8589 -80.9194 10° North 432 497 37,000  Level Atlanta Center
Fri 09:24:46 PM 33.9794 -80.8925 10° North 437 503 37,000  Level Atlanta Center
Fri 09:25:46 PM 34.1164 -80.8597 11° North 442 509 37,000  Level Atlanta Center
Fri 09:26:46 PM 34.2344 -80.8303 12° North 447 514 37,000  Level Atlanta Center
Fri 09:27:46 PM 34.3297 -80.8064 12° North 442 509 37,000  Level Atlanta Center
Fri 09:28:46 PM 34.4792 -80.7681 12° North 447 514 37,000  Level Atlanta Center
Fri 09:29:46 PM 34.5994 -80.7456 North 447 514 37,000  Level Atlanta Center
Fri 09:30:46 PM 34.7219 -80.7181 10° North 447 514 37,000  Level Atlanta Center
Fri 09:31:46 PM 34.8419 -80.6856 13° North 447 514 37,000  Level Atlanta Center
Fri 09:32:46 PM 34.9622 -80.6553 12° North 447 514 37,000  Level Atlanta Center
Fri 09:33:46 PM 35.0825 -80.6250 12° North 442 509 37,000  Level Atlanta Center
Fri 09:34:46 PM 35.2006 -80.5972 11° North 442 509 37,000  Level Atlanta Center
Fri 09:35:46 PM 35.3083 -80.5725 11° North 442 509 37,000  Level Atlanta Center
Fri 09:36:46 PM 35.4264 -80.5419 12° North 437 503 37,000  Level Atlanta Center
Fri 09:37:46 PM 35.5467 -80.5139 11° North 432 497 37,000  Level Atlanta Center
Fri 09:38:46 PM 35.6647 -80.4833 12° North 432 497 37,000  Level Atlanta Center
Fri 09:39:46 PM 35.7828 -80.4525 12° North 427 491 37,000  Level Atlanta Center
Fri 09:40:46 PM 35.9028 -80.4242 11° North 427 491 37,000  Level Atlanta Center
Fri 09:41:46 PM 36.0208 -80.3931 12° North 427 491 37,000  Level Atlanta Center
Fri 09:42:46 PM 36.1389 -80.3647 11° North 427 491 37,000 -594 Level Atlanta Center
Fri 09:44:58 PM 36.4014 -80.3042 11° North 452 520 35,100 -622 Descending Washington Center
Fri 09:45:59 PM 36.5194 -80.2725 12° North 429 494 35,000 -50 Descending Washington Center
Fri 09:46:59 PM 36.6500 -80.2392 12° North 429 494 35,000  Level Washington Center
Fri 09:48:00 PM 36.7681 -80.2100 11° North 429 494 35,000  Level Washington Center
Fri 09:49:00 PM 36.8861 -80.1806 11° North 429 494 35,000  Level Washington Center
Fri 09:49:58 PM 37.0061 -80.1514 11° North 429 494 35,000 -356 Level Washington Center
Fri 09:50:58 PM 37.1092 -80.1236 12° North 429 494 34,300 -800 Descending Washington Center
Fri 09:51:58 PM 37.2231 -80.0939 12° North 424 488 33,400 -634 Descending Washington Center
Fri 09:53:01 PM 37.3325 -80.0689 10° North 413 475 33,000 -200 Descending Washington Center
Fri 09:53:58 PM 37.4442 -80.0414 11° North 408 470 33,000 -407 Level Washington Center
Fri 09:54:59 PM 37.5558 -80.0114 12° North 408 470 32,200 -492 Descending Washington Center
Fri 09:56:00 PM 37.6653 -79.9836 11° North 408 470 32,000 -99 Descending Washington Center
Fri 09:57:00 PM 37.7872 -79.9539 11° North 403 464 32,000  Level Washington Center
Fri 09:57:58 PM 37.8969 -79.9233 12° North 398 458 32,000 -100 Level Washington Center
Fri 09:59:00 PM 38.0086 -79.8956 11° North 398 458 31,800 -1,672 Descending Washington Center
Fri 10:00:00 PM 38.1181 -79.8650 12° North 398 458 28,600 -2,700 Descending Washington Center
Fri 10:01:00 PM 38.2294 -79.8369 11° North 398 458 26,400 -2,150 Descending Washington Center
Fri 10:02:00 PM 38.3222 -79.8106 13° North 391 450 24,300 -1,210 Descending Washington Center
Fri 10:02:59 PM 38.4233 -79.7844 11° North 381 438 24,000 -151 Descending Washington Center
Fri 10:03:59 PM 38.5222 -79.7581 12° North 369 425 24,000  Level Washington Center
Fri 10:06:08 PM 38.7467 -79.6928 13° North 368 423 24,000 -251 Level Cleveland Center
Fri 10:07:10 PM 38.8394 -79.6689 11° North 367 422 23,200 -878 Descending Cleveland Center
Fri 10:08:11 PM 38.9406 -79.6678 360° North 359 413 22,200 -1,033 Descending Cleveland Center
Fri 10:09:12 PM 39.0472 -79.6711 359° North 358 412 21,100 -585 Descending Cleveland Center
Fri 10:10:14 PM 39.1464 -79.6764 358° North 357 411 21,000 -49 Descending Cleveland Center
Fri 10:11:15 PM 39.2447 -79.6806 358° North 356 410 21,000  Level Cleveland Center
Fri 10:12:16 PM 39.3436 -79.6839 359° North 356 410 21,000  Level Cleveland Center
Fri 10:13:18 PM 39.4622 -79.6875 359° North 356 410 21,000  Level Cleveland Center
Fri 10:14:19 PM 39.5714 -79.6906 359° North 388 447 21,000  Level Cleveland Center
Fri 10:15:21 PM 39.6825 -79.6944 358° North 397 457 21,000 -829 Level Cleveland Center
Fri 10:16:22 PM 39.7931 -79.6981 359° North 398 458 19,300 -2,049 Descending Cleveland Center
Fri 10:17:24 PM 39.8992 -79.7022 358° North 390 449 16,800 -2,439 Descending Cleveland Center
Fri 10:18:25 PM 40.0017 -79.7069 358° North 373 429 14,300 -2,390 Descending Cleveland Center
Fri 10:19:27 PM 40.1014 -79.7108 358° North 365 420 11,900 -2,195 Descending Cleveland Center
Fri 10:20:28 PM 40.1925 -79.7356 348° North 351 404 9,800 -1,756 Descending Cleveland Center
Fri 10:21:30 PM 40.2711 -79.8183 321° Northwest 304 350 8,300 -1,610 Descending Cleveland Center
Fri 10:22:31 PM 40.3286 -79.8753 323° Northwest 268 308 6,500 -1,820 Descending Cleveland Center
Fri 10:23:32 PM 40.3794 -79.9292 321° Northwest 241 277 4,600 -1,317 Descending Cleveland Center
Fri 10:24:34 PM 40.4214 -79.9786 318° Northwest 213 245 3,800 -537 Descending Cleveland Center
Fri 10:25:35 PM 40.4567 -80.0333 310° West 203 234 3,500 -439 Descending Cleveland Center
Fri 10:26:37 PM 40.4819 -80.0858 302° West 178 205 2,900 -732 Descending Cleveland Center
Fri 10:27:38 PM 40.4844 -80.1519 273° West 158 182 2,000 -829 Descending Cleveland Center
Fri 10:28:40 PM 40.4856 -80.2047 272° West 151 174 1,200 -774 Descending Cleveland Center
Fri 10:30:00 PM 40.4833 -80.2167 315° West  Level FlightAware Approximate

Login

Don't have an account? Register now (free) for customized features, flight alerts, and more!